createdAt,value
2022-12-17T07:49:01.640Z,7.00
2022-12-17T07:54:23.964Z,6.63
2022-12-17T07:59:46.780Z,7.10
2022-12-17T08:05:08.907Z,7.23
2022-12-17T08:10:31.027Z,9.60
2022-12-17T08:15:57.120Z,7.70
2022-12-17T08:21:21.509Z,10.23
2022-12-17T11:06:51.818Z,8.97
2022-12-17T11:12:14.631Z,8.13
2022-12-17T11:17:38.034Z,8.47
2022-12-17T11:23:16.247Z,9.07
2022-12-17T11:28:44.369Z,10.77
2022-12-17T11:34:29.307Z,10.63
2022-12-17T11:40:24.409Z,7.80
2022-12-17T11:45:55.561Z,9.23
2022-12-17T11:51:29.644Z,8.60
2022-12-17T11:57:03.241Z,6.53
2022-12-17T12:02:44.156Z,8.57
2022-12-17T12:08:37.252Z,8.77
2022-12-17T12:14:14.670Z,9.20
2022-12-17T12:19:36.482Z,8.20
2022-12-17T12:25:25.577Z,10.00
2022-12-17T12:31:12.481Z,8.77
2022-12-17T12:36:38.446Z,9.17
2022-12-17T12:42:19.179Z,9.60
2022-12-17T12:48:04.729Z,9.77
2022-12-17T12:53:31.491Z,9.27
2022-12-17T12:58:55.222Z,8.77
2022-12-17T13:04:19.280Z,11.43
2022-12-17T13:09:35.028Z,11.97
2022-12-17T13:15:08.340Z,9.17
2022-12-17T13:20:28.844Z,10.60
2022-12-17T13:25:32.671Z,11.30
2022-12-17T13:30:39.889Z,10.67
2022-12-17T13:36:21.240Z,10.27
2022-12-17T13:41:33.677Z,9.60
2022-12-17T13:46:47.258Z,11.10
2022-12-17T13:52:11.544Z,10.17
2022-12-17T13:57:24.740Z,9.90
2022-12-17T14:02:29.825Z,11.70
2022-12-17T14:07:36.089Z,10.37
2022-12-17T14:12:40.302Z,12.60
2022-12-17T14:17:47.683Z,11.40
2022-12-17T14:23:02.291Z,12.93
2022-12-17T14:28:20.658Z,11.23
2022-12-17T14:33:36.369Z,12.77
2022-12-17T14:38:42.958Z,17.57
2022-12-17T14:43:57.738Z,15.03
2022-12-17T14:49:05.499Z,16.63
2022-12-17T14:54:15.050Z,15.03
2022-12-17T14:59:38.906Z,14.40
2022-12-17T15:04:42.598Z,12.70
2022-12-17T15:09:46.314Z,13.43
2022-12-17T15:14:50.410Z,15.40
2022-12-17T15:19:56.241Z,19.00
2022-12-17T15:25:00.097Z,18.83
2022-12-17T15:30:03.549Z,16.23
2022-12-17T15:35:07.895Z,19.00
2022-12-17T15:40:12.679Z,15.77
2022-12-17T15:45:16.300Z,15.30
2022-12-17T15:50:19.660Z,15.90
2022-12-17T15:55:23.103Z,16.20
2022-12-17T16:00:27.507Z,13.70
2022-12-17T16:05:31.314Z,14.77
2022-12-17T16:10:35.399Z,13.10
2022-12-17T16:15:39.219Z,14.60
2022-12-17T16:20:43.731Z,15.77
2022-12-17T16:26:01.141Z,15.80
2022-12-17T16:31:11.467Z,17.57
2022-12-17T16:36:18.852Z,14.30
2022-12-17T16:41:24.706Z,14.50
2022-12-17T16:46:34.473Z,21.83
2022-12-17T16:51:40.519Z,21.73
2022-12-17T16:56:45.465Z,21.97
2022-12-17T17:01:50.698Z,17.57
2022-12-17T17:06:58.124Z,26.73
2022-12-17T17:12:09.640Z,23.33
2022-12-17T17:17:13.001Z,21.37
2022-12-17T17:22:17.214Z,15.67
2022-12-17T17:27:21.059Z,22.67
2022-12-17T17:32:24.759Z,19.37
2022-12-17T17:37:28.657Z,19.97
2022-12-17T17:42:32.161Z,20.83
2022-12-17T17:47:35.708Z,18.73
2022-12-17T17:52:39.151Z,17.73
2022-12-17T17:57:43.443Z,20.07
2022-12-17T18:02:46.825Z,19.03
2022-12-17T18:07:50.610Z,16.93
2022-12-17T18:13:12.727Z,17.13
2022-12-17T18:18:16.131Z,14.27
2022-12-17T18:23:19.900Z,14.83
2022-12-17T18:28:23.394Z,14.43
2022-12-17T18:33:27.129Z,14.90
2022-12-17T18:38:31.102Z,14.93
2022-12-17T18:43:34.851Z,14.87
2022-12-17T18:48:38.913Z,18.13
2022-12-17T18:53:42.942Z,18.90
2022-12-17T18:58:46.618Z,15.27
2022-12-17T19:03:50.830Z,14.93
2022-12-17T19:08:54.730Z,19.13
2022-12-17T19:13:59.100Z,13.77
2022-12-17T19:19:05.260Z,14.50
2022-12-17T19:24:12.432Z,14.20
2022-12-17T19:29:18.086Z,13.20
2022-12-17T19:34:22.702Z,15.20
2022-12-17T19:39:27.220Z,15.17
2022-12-17T19:44:31.287Z,13.87
2022-12-17T19:49:36.447Z,14.10
2022-12-17T19:54:39.926Z,16.73
2022-12-17T19:59:44.594Z,12.53
2022-12-17T20:04:48.050Z,12.50
2022-12-17T20:09:52.421Z,14.67
2022-12-17T20:14:58.028Z,13.33
2022-12-17T20:20:06.975Z,13.13
2022-12-17T20:25:23.947Z,14.37
2022-12-17T20:30:28.100Z,12.50
2022-12-17T20:35:31.467Z,13.57
2022-12-17T20:40:43.462Z,12.77
2022-12-17T20:45:52.111Z,11.37
2022-12-17T20:50:55.676Z,11.20
2022-12-17T20:56:04.786Z,13.97
2022-12-17T21:01:11.425Z,11.83
2022-12-17T21:06:24.837Z,14.10
2022-12-17T21:11:31.242Z,15.33
2022-12-17T21:16:36.154Z,14.80
2022-12-17T21:21:40.524Z,13.70
2022-12-17T21:26:45.834Z,13.67
2022-12-17T21:31:51.410Z,13.83
2022-12-17T21:36:54.780Z,14.43
2022-12-17T21:42:16.611Z,12.13
2022-12-17T21:47:20.519Z,15.53
2022-12-17T21:52:23.927Z,14.27
2022-12-17T21:57:28.460Z,15.03
2022-12-17T22:02:31.850Z,14.70
2022-12-17T22:07:43.662Z,17.27
2022-12-17T22:13:12.790Z,14.77
2022-12-17T22:18:16.867Z,12.80
2022-12-17T22:23:20.265Z,15.03
2022-12-17T22:28:24.170Z,15.10
2022-12-17T22:34:08.176Z,14.80
2022-12-17T22:42:42.800Z,15.20
2022-12-17T22:44:42.203Z,15.10
2022-12-17T22:49:40.549Z,17.17
2022-12-17T22:54:45.782Z,13.57
2022-12-17T22:59:50.700Z,15.83
2022-12-17T23:04:53.951Z,13.37
2022-12-17T23:09:57.560Z,14.43
2022-12-17T23:15:00.787Z,14.57
2022-12-17T23:20:05.211Z,16.13
2022-12-17T23:25:09.671Z,12.67
2022-12-17T23:30:14.611Z,14.33
2022-12-17T23:35:17.870Z,16.67
2022-12-17T23:40:21.687Z,19.00
2022-12-17T23:45:24.831Z,17.97
2022-12-17T23:50:28.359Z,18.60
2022-12-17T23:55:31.541Z,13.30
